Time;durP1;ratioP1;P1;durP2;ratioP2;P2;SDS_P1;SDS_P2;PMS_P1;PMS_P2;Temp;Humidity;BMP_temperature;BMP_pressure;BME280_temperature;BME280_humidity;BME280_pressure;Samples;Min_cycle;Max_cycle;Signal;HPM_P1;HPM_P2
2023/10/26 00:01:25;;;;;;;23.83;5.70;;;;;;;;;;4953430;29;20390;-68
2023/10/26 00:03:50;;;;;;;30.75;5.50;;;;;;;;;;4953535;29;20031;-68
2023/10/26 00:06:16;;;;;;;37.92;7.35;;;;;;;;;;4953074;29;20057;-68
2023/10/26 00:08:42;;;;;;;35.97;8.15;;;;;;;;;;4952811;28;20156;-67
2023/10/26 00:11:08;;;;;;;21.90;6.15;;;;;;;;;;4952476;28;20090;-68
2023/10/26 00:13:33;;;;;;;32.35;5.97;;;;;;;;;;4953425;29;20552;-67
2023/10/26 00:15:59;;;;;;;32.25;5.43;;;;;;;;;;4952680;28;20042;-68
2023/10/26 00:18:25;;;;;;;24.95;5.72;;;;;;;;;;4952478;28;20030;-68
2023/10/26 00:20:58;;;;;;;24.00;5.63;;;;;;;;;;4952273;28;20027;-68
2023/10/26 00:23:24;;;;;;;24.25;4.95;;;;;;;;;;4952321;28;20495;-68
2023/10/26 00:25:50;;;;;;;18.88;5.13;;;;;;;;;;4952499;28;20178;-68
2023/10/26 00:28:15;;;;;;;25.77;4.95;;;;;;;;;;4952045;28;20497;-68
2023/10/26 00:30:41;;;;;;;23.88;5.00;;;;;;;;;;4952271;29;20071;-68
2023/10/26 00:33:07;;;;;;;24.80;5.47;;;;;;;;;;4935166;29;20035;-68
2023/10/26 00:35:32;;;;;;;27.85;5.60;;;;;;;;;;4957121;28;20390;-68
2023/10/26 00:37:58;;;;;;;23.92;5.78;;;;;;;;;;4952476;29;20039;-69
2023/10/26 00:40:24;;;;;;;34.15;6.72;;;;;;;;;;4952328;29;20106;-68
2023/10/26 00:42:49;;;;;;;33.10;5.75;;;;;;;;;;4952272;28;20043;-69
2023/10/26 00:45:16;;;;;;;24.33;5.32;;;;;;;;;;4951094;28;20047;-68
2023/10/26 00:47:42;;;;;;;22.30;5.50;;;;;;;;;;4952647;28;20035;-68
2023/10/26 00:50:08;;;;;;;24.35;5.35;;;;;;;;;;4951939;29;20118;-69
2023/10/26 00:52:36;;;;;;;25.25;5.05;;;;;;;;;;4952003;29;20690;-69
2023/10/26 00:55:04;;;;;;;19.38;4.95;;;;;;;;;;4951785;28;20392;-68
2023/10/26 00:57:30;;;;;;;24.52;4.00;;;;;;;;;;4950971;28;20077;-68
2023/10/26 00:59:59;;;;;;;16.95;4.30;;;;;;;;;;4951932;28;20031;-67
2023/10/26 01:02:25;;;;;;;23.08;4.85;;;;;;;;;;4951896;28;20082;-69
2023/10/26 01:04:51;;;;;;;15.05;4.00;;;;;;;;;;4950494;29;20480;-67
2023/10/26 01:07:17;;;;;;;16.63;3.92;;;;;;;;;;4940552;29;20038;-68
2023/10/26 01:09:43;;;;;;;15.05;4.07;;;;;;;;;;4958737;28;20034;-67
2023/10/26 01:12:09;;;;;;;24.00;4.28;;;;;;;;;;4966706;28;20043;-67
2023/10/26 01:14:36;;;;;;;25.70;4.20;;;;;;;;;;4952233;29;20391;-68
2023/10/26 01:17:02;;;;;;;18.98;3.95;;;;;;;;;;4950352;29;20035;-67
2023/10/26 01:19:57;;;;;;;19.05;4.85;;;;;;;;;;4950397;29;20019;-68
2023/10/26 01:22:29;;;;;;;19.02;4.05;;;;;;;;;;4954035;28;20051;-68
2023/10/26 01:24:55;;;;;;;23.08;4.68;;;;;;;;;;4948078;29;20051;-67
2023/10/26 01:27:21;;;;;;;19.35;4.10;;;;;;;;;;4956403;28;20027;-68
2023/10/26 01:29:47;;;;;;;19.98;4.95;;;;;;;;;;4950795;29;20035;-68
2023/10/26 01:32:13;;;;;;;37.78;6.82;;;;;;;;;;4951009;29;20034;-68
2023/10/26 01:34:39;;;;;;;35.60;5.10;;;;;;;;;;4950804;28;20051;-68
2023/10/26 01:37:05;;;;;;;18.85;4.03;;;;;;;;;;4951095;29;20030;-68
2023/10/26 01:39:32;;;;;;;22.42;4.22;;;;;;;;;;4940143;28;20378;-68
2023/10/26 01:41:58;;;;;;;16.80;4.13;;;;;;;;;;4968164;28;20037;-68
2023/10/26 01:44:24;;;;;;;30.67;5.25;;;;;;;;;;4969322;28;20034;-68
2023/10/26 01:46:49;;;;;;;16.65;5.40;;;;;;;;;;4968841;28;20319;-69
2023/10/26 01:49:15;;;;;;;20.88;5.25;;;;;;;;;;4970105;28;20069;-67
2023/10/26 01:51:41;;;;;;;30.02;4.72;;;;;;;;;;4969415;28;20030;-68
2023/10/26 01:54:07;;;;;;;23.17;4.78;;;;;;;;;;4963487;28;20058;-68
2023/10/26 01:56:32;;;;;;;38.35;6.72;;;;;;;;;;4950187;28;20027;-67
2023/10/26 01:58:58;;;;;;;27.90;5.35;;;;;;;;;;4949687;29;20042;-68
2023/10/26 02:01:24;;;;;;;22.13;6.38;;;;;;;;;;4949885;29;20078;-68
2023/10/26 02:03:51;;;;;;;22.15;5.75;;;;;;;;;;4949927;29;20042;-67
2023/10/26 02:06:16;;;;;;;21.15;5.28;;;;;;;;;;4965940;28;20023;-67
2023/10/26 02:08:42;;;;;;;22.08;4.45;;;;;;;;;;4949288;29;20043;-67
2023/10/26 02:11:08;;;;;;;28.38;5.35;;;;;;;;;;4934026;29;20031;-67
2023/10/26 02:13:36;;;;;;;18.35;4.63;;;;;;;;;;4950418;29;20042;-68
2023/10/26 02:16:02;;;;;;;20.60;5.05;;;;;;;;;;4951198;29;20397;-68
2023/10/26 02:18:29;;;;;;;18.77;5.78;;;;;;;;;;4949420;29;20102;-68
2023/10/26 02:20:55;;;;;;;20.77;4.88;;;;;;;;;;4951264;29;20114;-68
2023/10/26 02:23:21;;;;;;;27.27;5.60;;;;;;;;;;4950663;29;20122;-68
2023/10/26 02:25:47;;;;;;;26.25;5.75;;;;;;;;;;4951318;28;20109;-68
2023/10/26 02:28:16;;;;;;;17.58;4.65;;;;;;;;;;4935505;29;20099;-68
2023/10/26 02:30:43;;;;;;;29.25;5.03;;;;;;;;;;4949483;29;20042;-68
2023/10/26 02:33:09;;;;;;;26.45;6.07;;;;;;;;;;4949450;29;20031;-68
2023/10/26 02:35:35;;;;;;;25.38;5.53;;;;;;;;;;4965890;28;20067;-68
2023/10/26 02:38:00;;;;;;;32.30;5.28;;;;;;;;;;4964970;28;20031;-68
2023/10/26 02:40:26;;;;;;;27.10;5.95;;;;;;;;;;4965112;28;20428;-68
2023/10/26 02:42:52;;;;;;;19.15;5.05;;;;;;;;;;4950676;28;20046;-67
2023/10/26 02:45:19;;;;;;;33.83;5.90;;;;;;;;;;4950471;28;20068;-68
2023/10/26 02:47:44;;;;;;;28.13;5.88;;;;;;;;;;4964936;28;20074;-67
2023/10/26 02:50:10;;;;;;;44.25;7.25;;;;;;;;;;4965908;28;20081;-68
2023/10/26 02:52:37;;;;;;;40.15;7.07;;;;;;;;;;4955395;29;20038;-69
2023/10/26 02:55:05;;;;;;;29.98;6.68;;;;;;;;;;4956451;28;20493;-67
2023/10/26 02:57:31;;;;;;;29.80;6.15;;;;;;;;;;4956827;28;20031;-69
2023/10/26 02:59:56;;;;;;;33.55;6.55;;;;;;;;;;4955199;29;20033;-68
2023/10/26 03:02:22;;;;;;;18.92;5.75;;;;;;;;;;4955026;28;20035;-68
2023/10/26 03:04:48;;;;;;;27.45;7.25;;;;;;;;;;4971272;28;20484;-68
2023/10/26 03:07:20;;;;;;;23.42;6.15;;;;;;;;;;4956101;28;20114;-68
2023/10/26 03:09:46;;;;;;;20.83;5.70;;;;;;;;;;4938760;29;20035;-68
2023/10/26 03:12:12;;;;;;;27.15;5.82;;;;;;;;;;4955016;29;20087;-68
2023/10/26 03:14:37;;;;;;;26.23;6.85;;;;;;;;;;4955217;29;20473;-68
2023/10/26 03:17:03;;;;;;;26.02;5.68;;;;;;;;;;4955490;29;20027;-67
2023/10/26 03:19:29;;;;;;;20.52;5.32;;;;;;;;;;4954962;28;20068;-68
2023/10/26 03:21:55;;;;;;;17.20;5.40;;;;;;;;;;4955948;29;20031;-68
2023/10/26 03:24:20;;;;;;;23.33;5.88;;;;;;;;;;4931165;29;20030;-68
2023/10/26 03:26:46;;;;;;;29.58;6.60;;;;;;;;;;4956198;29;20178;-68
2023/10/26 03:29:12;;;;;;;23.52;5.97;;;;;;;;;;4955887;28;20050;-68
2023/10/26 03:31:40;;;;;;;27.17;6.13;;;;;;;;;;4964229;28;20027;-68
2023/10/26 03:34:05;;;;;;;27.10;6.53;;;;;;;;;;4954948;29;20039;-68
2023/10/26 03:36:31;;;;;;;27.95;6.68;;;;;;;;;;4954495;29;20030;-68
2023/10/26 03:38:57;;;;;;;23.80;4.93;;;;;;;;;;4953935;29;20563;-68
2023/10/26 03:41:23;;;;;;;33.50;6.25;;;;;;;;;;4954289;28;20020;-67
2023/10/26 03:43:49;;;;;;;32.70;5.50;;;;;;;;;;4954287;28;20035;-68
2023/10/26 03:46:15;;;;;;;28.00;5.50;;;;;;;;;;4962102;28;20031;-68
2023/10/26 03:48:41;;;;;;;39.22;6.65;;;;;;;;;;4937977;29;20126;-68
2023/10/26 03:51:06;;;;;;;40.90;7.25;;;;;;;;;;4955172;29;20076;-68
2023/10/26 03:53:32;;;;;;;53.90;8.45;;;;;;;;;;4955768;29;20035;-68
2023/10/26 03:55:58;;;;;;;38.65;7.90;;;;;;;;;;4955238;29;20107;-67
2023/10/26 03:58:24;;;;;;;33.08;7.35;;;;;;;;;;4954986;29;20515;-68
2023/10/26 04:00:51;;;;;;;34.65;7.05;;;;;;;;;;4961850;28;20066;-67
2023/10/26 04:03:17;;;;;;;21.83;5.72;;;;;;;;;;4951639;29;20400;-68
2023/10/26 04:05:42;;;;;;;22.25;5.57;;;;;;;;;;4955459;28;20027;-68
2023/10/26 04:08:09;;;;;;;30.02;6.68;;;;;;;;;;4955142;28;20031;-68
2023/10/26 04:10:36;;;;;;;18.98;5.57;;;;;;;;;;4955088;28;20117;-68
2023/10/26 04:13:01;;;;;;;27.60;6.97;;;;;;;;;;4954882;28;20374;-68
2023/10/26 04:15:27;;;;;;;27.35;6.10;;;;;;;;;;4955067;28;20027;-68
2023/10/26 04:17:53;;;;;;;30.42;6.68;;;;;;;;;;4955017;28;20039;-68
2023/10/26 04:20:22;;;;;;;24.10;6.32;;;;;;;;;;4954843;29;20055;-69
2023/10/26 04:22:49;;;;;;;28.88;7.22;;;;;;;;;;4954536;28;20115;-68
2023/10/26 04:25:15;;;;;;;23.30;6.82;;;;;;;;;;4954486;29;20507;-68
2023/10/26 04:27:40;;;;;;;27.13;7.00;;;;;;;;;;4954205;29;20035;-69
2023/10/26 04:30:07;;;;;;;31.67;6.15;;;;;;;;;;4954043;28;20030;-69
2023/10/26 04:32:33;;;;;;;22.52;6.57;;;;;;;;;;4954178;29;20043;-68
2023/10/26 04:34:59;;;;;;;21.50;5.78;;;;;;;;;;4954042;28;20059;-70
2023/10/26 04:37:25;;;;;;;22.73;6.20;;;;;;;;;;4953773;28;20122;-69
2023/10/26 04:39:51;;;;;;;29.77;7.28;;;;;;;;;;4953675;29;20106;-68
2023/10/26 04:42:18;;;;;;;38.85;8.13;;;;;;;;;;4953535;28;20035;-68
2023/10/26 04:44:43;;;;;;;23.73;5.82;;;;;;;;;;4954174;29;20480;-69
2023/10/26 04:47:09;;;;;;;28.60;6.45;;;;;;;;;;4954085;29;20139;-67
2023/10/26 04:49:35;;;;;;;39.10;7.63;;;;;;;;;;4953694;29;20106;-68
2023/10/26 04:52:01;;;;;;;32.70;6.45;;;;;;;;;;4953615;29;20071;-68
2023/10/26 04:54:29;;;;;;;20.20;6.43;;;;;;;;;;4953647;29;20093;-68
2023/10/26 04:56:55;;;;;;;25.17;5.97;;;;;;;;;;4953656;29;20118;-69
2023/10/26 04:59:21;;;;;;;31.23;6.90;;;;;;;;;;4950526;29;20471;-68
2023/10/26 05:01:46;;;;;;;39.17;7.15;;;;;;;;;;4953622;29;20493;-68
2023/10/26 05:04:13;;;;;;;25.65;6.07;;;;;;;;;;4953195;28;20385;-68
2023/10/26 05:06:39;;;;;;;24.85;6.93;;;;;;;;;;4953178;29;20043;-68
2023/10/26 05:09:05;;;;;;;20.83;5.40;;;;;;;;;;4952764;29;20081;-68
2023/10/26 05:11:32;;;;;;;28.70;7.80;;;;;;;;;;4953517;29;21121;-68
2023/10/26 05:13:57;;;;;;;34.13;7.25;;;;;;;;;;4952579;28;20031;-69
2023/10/26 05:16:23;;;;;;;39.20;6.78;;;;;;;;;;4952571;29;20058;-68
2023/10/26 05:18:49;;;;;;;48.38;9.32;;;;;;;;;;4946631;28;20027;-69
2023/10/26 05:21:14;;;;;;;43.13;8.73;;;;;;;;;;4957093;28;20046;-68
2023/10/26 05:23:40;;;;;;;36.38;8.00;;;;;;;;;;4953325;29;20078;-68
2023/10/26 05:26:06;;;;;;;47.20;9.23;;;;;;;;;;4952953;29;20105;-68
2023/10/26 05:28:32;;;;;;;50.80;9.07;;;;;;;;;;4953149;29;20027;-69
2023/10/26 05:30:59;;;;;;;25.98;7.70;;;;;;;;;;4952624;29;20039;-69
2023/10/26 05:33:24;;;;;;;40.58;8.02;;;;;;;;;;4951785;28;20469;-70
2023/10/26 05:35:50;;;;;;;33.15;9.13;;;;;;;;;;4952170;28;20131;-70
2023/10/26 05:38:19;;;;;;;32.90;7.25;;;;;;;;;;4935385;29;20031;-70
2023/10/26 05:40:52;;;;;;;25.23;7.18;;;;;;;;;;4953312;29;20059;-71
2023/10/26 05:43:18;;;;;;;34.28;6.60;;;;;;;;;;4952237;28;20457;-69
2023/10/26 05:45:43;;;;;;;24.13;6.90;;;;;;;;;;4936394;29;20038;-70
2023/10/26 05:48:10;;;;;;;31.08;7.97;;;;;;;;;;4951628;28;20103;-69
2023/10/26 05:50:41;;;;;;;30.90;7.68;;;;;;;;;;4953294;28;20024;-70
2023/10/26 05:53:08;;;;;;;34.00;7.80;;;;;;;;;;4953127;28;20444;-70
2023/10/26 05:55:36;;;;;;;35.10;8.52;;;;;;;;;;4952175;28;20493;-71
2023/10/26 05:58:02;;;;;;;35.35;8.43;;;;;;;;;;4952342;29;20031;-71
2023/10/26 06:00:28;;;;;;;34.97;7.78;;;;;;;;;;4936154;29;20027;-71
2023/10/26 06:02:55;;;;;;;26.27;6.68;;;;;;;;;;4951478;29;20390;-70
2023/10/26 06:05:20;;;;;;;25.92;6.90;;;;;;;;;;4952475;28;20038;-69
2023/10/26 06:07:47;;;;;;;25.13;8.02;;;;;;;;;;4952580;29;20031;-71
2023/10/26 06:10:13;;;;;;;27.08;7.93;;;;;;;;;;4952460;29;20492;-70
2023/10/26 06:12:40;;;;;;;29.13;8.18;;;;;;;;;;4950698;29;20031;-71
2023/10/26 06:15:06;;;;;;;39.22;9.70;;;;;;;;;;4950810;28;20023;-69
2023/10/26 06:17:32;;;;;;;34.63;8.63;;;;;;;;;;4952022;29;20054;-71
2023/10/26 06:19:57;;;;;;;31.85;8.23;;;;;;;;;;4951566;29;20389;-70
2023/10/26 06:22:23;;;;;;;30.65;7.45;;;;;;;;;;4952174;29;20069;-71
2023/10/26 06:24:48;;;;;;;25.80;6.85;;;;;;;;;;4953035;28;20027;-70
2023/10/26 06:27:14;;;;;;;25.35;6.70;;;;;;;;;;4954942;28;20031;-71
2023/10/26 06:29:44;;;;;;;30.50;7.35;;;;;;;;;;4953898;29;20023;-71
2023/10/26 06:32:12;;;;;;;22.83;6.20;;;;;;;;;;4955924;28;20459;-71
2023/10/26 06:34:37;;;;;;;25.48;6.50;;;;;;;;;;4954123;29;20038;-71
2023/10/26 06:37:03;;;;;;;30.13;6.05;;;;;;;;;;4956426;29;20106;-71
2023/10/26 06:39:29;;;;;;;24.02;5.82;;;;;;;;;;4953887;28;20050;-70
2023/10/26 06:41:56;;;;;;;14.63;4.97;;;;;;;;;;4937520;29;20039;-70
2023/10/26 06:44:23;;;;;;;25.25;4.93;;;;;;;;;;4960244;28;20477;-71
2023/10/26 06:46:49;;;;;;;24.40;6.70;;;;;;;;;;4955224;28;20027;-71
2023/10/26 06:49:14;;;;;;;27.95;7.22;;;;;;;;;;4954525;29;20059;-69
2023/10/26 06:51:40;;;;;;;21.98;5.70;;;;;;;;;;4955532;29;20057;-70
2023/10/26 06:54:06;;;;;;;31.17;7.13;;;;;;;;;;4955653;29;20046;-69
2023/10/26 06:56:31;;;;;;;26.83;7.45;;;;;;;;;;4952989;28;20047;-70
2023/10/26 06:58:57;;;;;;;30.83;7.78;;;;;;;;;;4954804;28;20066;-71
2023/10/26 07:01:23;;;;;;;42.35;8.10;;;;;;;;;;4954293;29;20023;-71
2023/10/26 07:03:50;;;;;;;28.27;7.50;;;;;;;;;;4950549;29;20029;-72
2023/10/26 07:06:18;;;;;;;22.60;5.72;;;;;;;;;;4954852;28;20058;-72
2023/10/26 07:08:44;;;;;;;32.08;6.32;;;;;;;;;;4954421;28;20031;-72
2023/10/26 07:11:10;;;;;;;23.20;5.70;;;;;;;;;;4955181;29;20062;-74
2023/10/26 07:13:35;;;;;;;28.10;7.22;;;;;;;;;;4955280;29;20493;-70
2023/10/26 07:16:03;;;;;;;31.33;8.25;;;;;;;;;;4955598;29;20043;-73
2023/10/26 07:18:29;;;;;;;34.38;8.45;;;;;;;;;;4954154;28;20050;-71
2023/10/26 07:20:55;;;;;;;24.48;6.90;;;;;;;;;;4955533;29;20031;-71
2023/10/26 07:23:20;;;;;;;33.17;7.03;;;;;;;;;;4947060;29;20050;-72
2023/10/26 07:25:47;;;;;;;27.02;6.30;;;;;;;;;;4954485;29;20059;-71
2023/10/26 07:28:12;;;;;;;25.58;7.07;;;;;;;;;;4954257;29;20031;-72
2023/10/26 07:30:39;;;;;;;22.77;6.80;;;;;;;;;;4953224;28;20042;-71
2023/10/26 07:33:05;;;;;;;17.52;6.53;;;;;;;;;;4953393;29;20039;-72
2023/10/26 07:35:34;;;;;;;18.45;6.18;;;;;;;;;;4953435;29;20031;-71
2023/10/26 07:37:59;;;;;;;20.80;6.20;;;;;;;;;;4952912;28;20034;-71
2023/10/26 07:40:27;;;;;;;19.48;6.35;;;;;;;;;;4952567;28;20273;-73
2023/10/26 07:42:52;;;;;;;21.95;6.97;;;;;;;;;;4953774;28;20408;-70
2023/10/26 07:45:18;;;;;;;23.92;7.22;;;;;;;;;;4955003;29;20039;-71
2023/10/26 07:47:44;;;;;;;27.08;7.07;;;;;;;;;;4955558;28;20031;-70
2023/10/26 07:50:11;;;;;;;25.25;6.70;;;;;;;;;;4954949;29;20050;-69
2023/10/26 07:52:37;;;;;;;23.90;7.43;;;;;;;;;;4949781;29;20115;-71
2023/10/26 07:55:03;;;;;;;25.27;7.00;;;;;;;;;;4935826;29;20056;-71
2023/10/26 07:57:29;;;;;;;27.98;6.15;;;;;;;;;;4935934;29;20073;-70
2023/10/26 07:59:55;;;;;;;26.75;6.90;;;;;;;;;;4935535;28;20040;-71
2023/10/26 08:02:20;;;;;;;29.95;6.35;;;;;;;;;;4954090;29;20027;-69
2023/10/26 08:04:49;;;;;;;23.25;6.60;;;;;;;;;;4954401;29;20485;-71
2023/10/26 08:07:15;;;;;;;23.33;5.93;;;;;;;;;;4954894;29;20331;-70
2023/10/26 08:09:42;;;;;;;22.92;5.72;;;;;;;;;;4954212;29;20043;-69
2023/10/26 08:12:07;;;;;;;28.55;6.93;;;;;;;;;;4954750;29;20023;-68
2023/10/26 08:14:33;;;;;;;36.83;8.25;;;;;;;;;;4954820;29;20110;-69
2023/10/26 08:16:59;;;;;;;23.70;5.63;;;;;;;;;;4955008;29;20038;-69
2023/10/26 08:19:25;;;;;;;31.90;6.32;;;;;;;;;;4954194;29;20042;-68
2023/10/26 08:21:50;;;;;;;21.70;5.53;;;;;;;;;;4954664;29;20031;-70
2023/10/26 08:24:16;;;;;;;24.33;6.50;;;;;;;;;;4954401;29;20477;-69
2023/10/26 08:26:42;;;;;;;25.65;5.80;;;;;;;;;;4954330;29;20437;-68
2023/10/26 08:29:08;;;;;;;24.02;6.18;;;;;;;;;;4953751;29;20110;-69
2023/10/26 08:31:35;;;;;;;24.40;6.55;;;;;;;;;;4952821;29;20023;-69
2023/10/26 08:34:02;;;;;;;22.95;7.25;;;;;;;;;;4954671;29;20095;-69
2023/10/26 08:36:27;;;;;;;30.38;7.13;;;;;;;;;;4954382;29;20034;-70
2023/10/26 08:38:53;;;;;;;29.20;8.93;;;;;;;;;;4954355;29;20408;-69
2023/10/26 08:41:19;;;;;;;32.35;8.60;;;;;;;;;;4954241;28;20509;-69
2023/10/26 08:43:45;;;;;;;27.00;8.18;;;;;;;;;;4953869;29;20080;-68
2023/10/26 08:46:11;;;;;;;26.98;6.88;;;;;;;;;;4954095;28;20381;-70
2023/10/26 08:48:41;;;;;;;25.02;8.15;;;;;;;;;;4952710;28;20536;-69
2023/10/26 08:51:07;;;;;;;26.90;6.95;;;;;;;;;;4954036;29;20035;-69
2023/10/26 08:53:34;;;;;;;23.20;6.30;;;;;;;;;;4953895;28;20035;-70
2023/10/26 08:56:00;;;;;;;25.63;6.43;;;;;;;;;;4954305;28;20106;-69
2023/10/26 08:58:26;;;;;;;23.98;7.03;;;;;;;;;;4953792;28;20572;-70
2023/10/26 09:00:52;;;;;;;25.80;6.85;;;;;;;;;;4954118;28;20122;-69
2023/10/26 09:03:18;;;;;;;21.10;7.40;;;;;;;;;;4953854;28;20031;-70
2023/10/26 09:05:55;;;;;;;30.50;8.23;;;;;;;;;;4953952;28;20046;-70
2023/10/26 09:08:27;;;;;;;25.00;7.68;;;;;;;;;;4953136;28;20054;-69
2023/10/26 09:10:53;;;;;;;38.63;9.57;;;;;;;;;;4952902;28;20035;-69
2023/10/26 09:13:29;;;;;;;32.75;8.40;;;;;;;;;;4953706;29;20034;-69
2023/10/26 09:15:57;;;;;;;33.20;9.45;;;;;;;;;;4951766;29;20051;-69
2023/10/26 09:18:24;;;;;;;36.63;9.02;;;;;;;;;;4952813;29;20066;-69
2023/10/26 09:21:07;;;;;;;25.20;8.07;;;;;;;;;;4953218;29;20023;-68
2023/10/26 09:23:37;;;;;;;27.33;9.10;;;;;;;;;;4953237;29;20074;-69
2023/10/26 09:26:04;;;;;;;23.90;8.73;;;;;;;;;;4953843;29;20461;-69
2023/10/26 09:28:54;;;;;;;27.02;7.45;;;;;;;;;;4953816;29;20331;-68
2023/10/26 09:31:21;;;;;;;21.50;7.82;;;;;;;;;;4953234;29;20039;-68
2023/10/26 09:33:47;;;;;;;28.30;9.43;;;;;;;;;;4952636;29;20111;-70
2023/10/26 09:36:15;;;;;;;27.30;8.35;;;;;;;;;;4950327;29;20105;-69
2023/10/26 09:38:41;;;;;;;33.40;9.65;;;;;;;;;;4952948;28;20035;-68
2023/10/26 09:41:12;;;;;;;30.10;8.90;;;;;;;;;;4952994;28;20047;-70
2023/10/26 09:43:40;;;;;;;32.65;9.77;;;;;;;;;;4952523;28;20079;-68
2023/10/26 09:46:07;;;;;;;31.05;11.57;;;;;;;;;;4953291;28;20453;-68
2023/10/26 09:48:33;;;;;;;36.28;9.82;;;;;;;;;;4952461;29;20043;-68
2023/10/26 09:51:01;;;;;;;25.02;9.00;;;;;;;;;;4953618;29;20024;-67
2023/10/26 09:53:48;;;;;;;21.88;6.90;;;;;;;;;;4952453;29;20264;-68
2023/10/26 09:56:23;;;;;;;20.90;6.82;;;;;;;;;;4951146;28;20053;-68
2023/10/26 09:58:51;;;;;;;30.67;7.15;;;;;;;;;;4951818;29;20477;-69
2023/10/26 10:01:37;;;;;;;28.30;7.03;;;;;;;;;;4949896;29;20020;-68
2023/10/26 10:04:08;;;;;;;24.83;7.15;;;;;;;;;;4949715;29;20031;-68
2023/10/26 10:06:48;;;;;;;24.02;7.22;;;;;;;;;;4952945;29;20042;-68
2023/10/26 10:09:17;;;;;;;23.80;6.55;;;;;;;;;;4953080;29;20039;-67
2023/10/26 10:11:42;;;;;;;17.67;5.97;;;;;;;;;;4953013;29;20059;-67
2023/10/26 10:14:08;;;;;;;18.48;5.05;;;;;;;;;;4952921;29;20061;-68
2023/10/26 10:16:34;;;;;;;17.55;4.18;;;;;;;;;;4952515;29;20030;-68
2023/10/26 10:19:19;;;;;;;16.60;5.28;;;;;;;;;;4947527;29;20039;-67
2023/10/26 10:21:47;;;;;;;15.25;5.22;;;;;;;;;;4952162;28;20070;-69
2023/10/26 10:24:39;;;;;;;17.63;5.00;;;;;;;;;;4951763;28;20027;-68
2023/10/26 10:27:18;;;;;;;14.98;4.28;;;;;;;;;;4943934;29;20122;-69
2023/10/26 10:29:44;;;;;;;23.35;5.85;;;;;;;;;;4951792;28;20055;-69
2023/10/26 10:32:11;;;;;;;15.43;5.15;;;;;;;;;;4953940;28;20046;-68
2023/10/26 10:34:45;;;;;;;17.15;5.32;;;;;;;;;;4952781;28;20409;-68
2023/10/26 10:37:17;;;;;;;18.75;5.60;;;;;;;;;;4951005;29;20467;-68
2023/10/26 10:40:11;;;;;;;21.35;5.60;;;;;;;;;;4952351;29;20083;-68
2023/10/26 10:42:56;;;;;;;18.23;4.47;;;;;;;;;;4952634;28;20133;-69
2023/10/26 10:45:22;;;;;;;24.75;5.15;;;;;;;;;;4952644;29;20054;-69
2023/10/26 10:47:48;;;;;;;26.98;4.90;;;;;;;;;;4952284;29;20037;-69
2023/10/26 10:50:16;;;;;;;24.35;4.80;;;;;;;;;;4952463;29;20036;-68
2023/10/26 10:52:42;;;;;;;24.13;6.00;;;;;;;;;;4951965;28;20028;-70
2023/10/26 10:55:08;;;;;;;27.63;5.57;;;;;;;;;;4950660;28;20102;-70
2023/10/26 10:57:34;;;;;;;21.33;4.88;;;;;;;;;;4952073;29;20066;-69
2023/10/26 11:00:00;;;;;;;19.58;4.60;;;;;;;;;;4951167;29;20059;-68
2023/10/26 11:02:25;;;;;;;24.90;3.67;;;;;;;;;;4952573;28;20109;-68
2023/10/26 11:04:57;;;;;;;27.52;4.25;;;;;;;;;;4951812;28;20035;-70
2023/10/26 11:07:27;;;;;;;18.80;3.78;;;;;;;;;;4951151;28;20393;-68
2023/10/26 11:09:57;;;;;;;15.07;3.35;;;;;;;;;;4934214;29;20035;-68
2023/10/26 11:12:23;;;;;;;19.17;4.15;;;;;;;;;;4953380;28;20041;-68
2023/10/26 11:14:50;;;;;;;14.60;3.70;;;;;;;;;;4954795;28;20030;-68
2023/10/26 11:17:18;;;;;;;17.52;3.25;;;;;;;;;;4955295;28;20038;-68
2023/10/26 11:19:43;;;;;;;22.50;3.20;;;;;;;;;;4955295;29;20103;-68
2023/10/26 11:22:09;;;;;;;25.60;4.22;;;;;;;;;;4954704;29;20564;-68
2023/10/26 11:24:35;;;;;;;21.35;3.60;;;;;;;;;;4955281;29;20050;-68
2023/10/26 11:27:06;;;;;;;11.60;2.95;;;;;;;;;;4955048;28;20030;-68
2023/10/26 11:29:32;;;;;;;25.00;3.60;;;;;;;;;;4954824;29;20031;-69
2023/10/26 11:31:57;;;;;;;30.45;4.53;;;;;;;;;;4954785;28;20118;-70
2023/10/26 11:34:25;;;;;;;15.40;2.55;;;;;;;;;;4954998;29;20351;-69
2023/10/26 11:36:52;;;;;;;22.15;3.75;;;;;;;;;;4955216;28;20031;-70
2023/10/26 11:39:18;;;;;;;28.48;3.60;;;;;;;;;;4955644;29;20409;-69
2023/10/26 11:41:54;;;;;;;23.38;3.83;;;;;;;;;;4955420;29;20034;-69
2023/10/26 11:44:27;;;;;;;18.67;3.22;;;;;;;;;;4955553;29;20098;-69
2023/10/26 11:46:59;;;;;;;19.85;3.22;;;;;;;;;;4955435;29;20509;-68
2023/10/26 11:49:39;;;;;;;19.30;3.03;;;;;;;;;;4955456;29;20110;-68
2023/10/26 11:52:05;;;;;;;20.70;3.78;;;;;;;;;;4955147;29;20079;-68
2023/10/26 11:54:31;;;;;;;15.90;3.28;;;;;;;;;;4953599;29;20035;-67
2023/10/26 11:56:57;;;;;;;24.13;4.20;;;;;;;;;;4955614;28;20054;-67
2023/10/26 11:59:23;;;;;;;13.48;2.58;;;;;;;;;;4955483;28;20292;-68
2023/10/26 12:01:48;;;;;;;13.32;2.60;;;;;;;;;;4955019;28;20042;-69
2023/10/26 12:04:14;;;;;;;30.02;4.60;;;;;;;;;;4954890;28;20384;-69
2023/10/26 12:06:40;;;;;;;26.80;4.07;;;;;;;;;;4954977;29;20497;-69
2023/10/26 12:09:06;;;;;;;32.85;10.68;;;;;;;;;;4954470;29;20474;-68
2023/10/26 12:11:33;;;;;;;18.65;5.18;;;;;;;;;;4953907;29;20114;-69
2023/10/26 12:13:58;;;;;;;21.42;4.45;;;;;;;;;;4954850;28;20452;-69
2023/10/26 12:16:24;;;;;;;26.38;4.93;;;;;;;;;;4955254;29;20109;-69
2023/10/26 12:18:51;;;;;;;14.95;4.40;;;;;;;;;;4955191;29;20035;-69
2023/10/26 12:21:17;;;;;;;22.30;4.95;;;;;;;;;;4937627;29;20050;-69
2023/10/26 12:23:43;;;;;;;18.92;3.33;;;;;;;;;;4954828;28;20027;-68
2023/10/26 12:26:09;;;;;;;28.65;6.22;;;;;;;;;;4954777;29;20114;-69
2023/10/26 12:28:34;;;;;;;26.73;4.60;;;;;;;;;;4954885;29;20031;-68
2023/10/26 12:31:00;;;;;;;32.15;4.90;;;;;;;;;;4954720;29;20106;-69
2023/10/26 12:33:27;;;;;;;15.35;3.63;;;;;;;;;;4954718;29;20023;-68
2023/10/26 12:35:53;;;;;;;14.00;3.58;;;;;;;;;;4954397;29;20121;-68
2023/10/26 12:38:22;;;;;;;15.45;3.63;;;;;;;;;;4953513;29;20019;-69
2023/10/26 12:40:48;;;;;;;13.43;3.30;;;;;;;;;;4954869;29;20042;-70
2023/10/26 12:43:14;;;;;;;12.57;3.85;;;;;;;;;;4953929;28;20042;-69
2023/10/26 12:45:39;;;;;;;17.25;3.40;;;;;;;;;;4954094;29;20563;-69
2023/10/26 12:48:05;;;;;;;20.50;4.05;;;;;;;;;;4954533;29;20023;-68
2023/10/26 12:50:31;;;;;;;22.23;3.70;;;;;;;;;;4954473;29;20035;-68
2023/10/26 12:52:56;;;;;;;26.70;4.70;;;;;;;;;;4954819;29;20461;-68
2023/10/26 12:55:23;;;;;;;22.25;4.60;;;;;;;;;;4954846;29;20065;-68
2023/10/26 12:57:52;;;;;;;30.35;4.68;;;;;;;;;;4954444;29;20023;-68
2023/10/26 13:00:19;;;;;;;23.05;6.43;;;;;;;;;;4954695;28;20398;-69
2023/10/26 13:02:45;;;;;;;21.95;3.47;;;;;;;;;;4954814;28;20081;-69
2023/10/26 13:05:10;;;;;;;13.07;3.40;;;;;;;;;;4954136;29;20043;-68
2023/10/26 13:07:36;;;;;;;16.83;3.55;;;;;;;;;;4953500;28;20023;-68
2023/10/26 13:10:02;;;;;;;17.30;4.03;;;;;;;;;;4953970;28;20079;-70
2023/10/26 13:12:28;;;;;;;18.25;3.33;;;;;;;;;;4953524;29;20366;-68
2023/10/26 13:14:54;;;;;;;16.77;3.30;;;;;;;;;;4953596;28;20110;-68
2023/10/26 13:17:20;;;;;;;21.13;4.30;;;;;;;;;;4960589;28;20149;-67
2023/10/26 13:19:47;;;;;;;20.63;3.83;;;;;;;;;;4971418;28;20455;-67
2023/10/26 13:22:13;;;;;;;22.58;4.50;;;;;;;;;;4973155;28;20022;-68
2023/10/26 13:24:38;;;;;;;22.02;4.90;;;;;;;;;;4972755;28;20043;-67
2023/10/26 13:27:04;;;;;;;20.30;3.70;;;;;;;;;;4971679;28;20035;-68
2023/10/26 13:29:30;;;;;;;21.00;3.47;;;;;;;;;;4971454;28;20042;-68
2023/10/26 13:31:57;;;;;;;18.08;3.30;;;;;;;;;;4963069;28;20382;-68
2023/10/26 13:34:23;;;;;;;23.10;3.67;;;;;;;;;;4952375;28;20118;-68
2023/10/26 13:36:48;;;;;;;21.27;3.95;;;;;;;;;;4953130;28;20736;-67
2023/10/26 13:39:14;;;;;;;35.13;5.10;;;;;;;;;;4952082;29;20489;-67
2023/10/26 13:41:41;;;;;;;32.65;3.72;;;;;;;;;;4952028;28;20113;-67
2023/10/26 13:44:07;;;;;;;16.42;3.15;;;;;;;;;;4952516;29;20074;-69
2023/10/26 13:46:34;;;;;;;16.63;3.30;;;;;;;;;;4952257;29;20031;-69
2023/10/26 13:49:00;;;;;;;14.30;2.88;;;;;;;;;;4952334;29;20043;-68
2023/10/26 13:51:26;;;;;;;12.75;3.28;;;;;;;;;;4952868;29;20082;-68
2023/10/26 13:53:51;;;;;;;23.38;3.75;;;;;;;;;;4966200;28;20497;-68
2023/10/26 13:56:17;;;;;;;14.07;3.47;;;;;;;;;;4969831;28;20058;-67
2023/10/26 13:58:43;;;;;;;25.35;3.85;;;;;;;;;;4960835;28;20114;-67
2023/10/26 14:01:13;;;;;;;13.10;3.20;;;;;;;;;;4951553;29;20058;-70
2023/10/26 14:03:39;;;;;;;17.65;4.03;;;;;;;;;;4952601;29;20035;-68
2023/10/26 14:06:04;;;;;;;12.38;3.10;;;;;;;;;;4952012;29;20066;-69
2023/10/26 14:08:30;;;;;;;14.48;3.45;;;;;;;;;;4952104;29;20114;-69
2023/10/26 14:10:56;;;;;;;17.17;3.80;;;;;;;;;;4950679;29;20027;-68
2023/10/26 14:13:22;;;;;;;18.58;3.80;;;;;;;;;;4952772;29;20038;-67
2023/10/26 14:15:47;;;;;;;15.27;3.00;;;;;;;;;;4951568;28;20023;-68
2023/10/26 14:18:13;;;;;;;37.63;5.82;;;;;;;;;;4951469;29;20120;-68
2023/10/26 14:20:39;;;;;;;38.53;4.68;;;;;;;;;;4960282;28;20106;-68
2023/10/26 14:23:05;;;;;;;21.05;4.07;;;;;;;;;;4968977;28;20038;-69
2023/10/26 14:25:31;;;;;;;18.40;4.25;;;;;;;;;;4951162;28;20049;-68
2023/10/26 14:27:57;;;;;;;29.48;3.85;;;;;;;;;;4950260;28;20027;-67
2023/10/26 14:30:23;;;;;;;16.85;3.53;;;;;;;;;;4951931;28;20050;-67